Pagina principale
METAR-TAF:

METAR-TAF

Aeroporti :

Aeroporto di Zagabria-Franjo Tuđman

Zagabria, Croazia

latitudine: 45-44N, longitudine: 016-04E, altezza: 106 m

Osservazione

Il bollettino è stato emesso 10 minuti fa, alle 12:00 UTC
Vento 2 kt da direzioni variabili
Temperature 1°C
Umidità 75%
Pressione 1022 hPa
Visibilità: 8000 m

METAR: LDZA 171200Z VRB02KT 8000 NSC 01/M03 Q1022 NOSIG

Ora: 13:10 (12:10 UTC)

Previsione

Il bollettino è stato emesso 45 minuti fa, alle 11:25 UTC
Previsione valida dal 17 alle 12 UTC al 18 alle 12 UTC
Vento 3 kt da nord-est
Visibilità 10 km o più
nessuna nube inferiore a 1500 m e nessun cumulonembo
Evoluzione graduale
dal 17 alle 19 UTC al 17 alle 21 UTC
Visibilità: 3000 m
foschia
Probabilità 40%
dal 17 alle 23 UTC al 18 alle 12 UTC
Visibilità: 0200 m
ad un'altezza di 100 ft
nebbia che ghiaccia

TAF: LDZA 171125Z 1712/1812 05003KT CAVOK TX01/1712Z TNM08/1805Z BECMG 1719/1721 3000 BR PROB40 1723/1812 0200 FZFG VV001

Osservazioni e previsioni meteorologiche di più di 4000 aeroporti (messaggi METAR e TAF).

Le stazioni disponibili sono rappresentate dai dischi gialli e rossi sulla carta.

Puntare il mouse per vedere il nome della stazione.

Clicca sopra per visualizzare le osservazioni e previsioni meteorologiche.

Per cambiare la mappa : fare clic sui pulsanti verdi con una croce nera per ingrandire, il pulsante verde con un trattino per diminuire, o sulla freccia verde per le mappe adiacenti.


METAR-TAF: